Time;durP1;ratioP1;P1;durP2;ratioP2;P2;SDS_P1;SDS_P2;PMS_P1;PMS_P2;Temp;Humidity;BMP_temperature;BMP_pressure;BME280_temperature;BME280_humidity;BME280_pressure;Samples;Min_cycle;Max_cycle;Signal;HPM_P1;HPM_P2
2021/09/16 00:01:18;;;;;;;8.15;5.70;;;18.80;76.90;;;;;;4953486;29;20027;-69
2021/09/16 00:03:44;;;;;;;7.18;5.25;;;18.80;77.00;;;;;;4953512;29;20023;-69
2021/09/16 00:06:10;;;;;;;7.75;5.13;;;18.70;76.80;;;;;;4953334;29;20556;-69
2021/09/16 00:08:36;;;;;;;6.95;5.40;;;18.70;77.00;;;;;;4953470;29;20114;-69
2021/09/16 00:11:01;;;;;;;6.65;5.25;;;18.70;76.60;;;;;;4954103;29;20126;-69
2021/09/16 00:13:27;;;;;;;6.88;5.25;;;18.70;76.80;;;;;;4953579;29;20035;-69
2021/09/16 00:15:53;;;;;;;7.60;5.75;;;18.70;77.10;;;;;;4953340;29;20026;-69
2021/09/16 00:18:20;;;;;;;7.22;5.30;;;18.70;77.10;;;;;;4953434;29;20082;-69
2021/09/16 00:20:47;;;;;;;6.85;4.95;;;18.70;77.00;;;;;;4953272;29;20039;-70
2021/09/16 00:23:12;;;;;;;9.02;5.35;;;18.70;77.30;;;;;;4953129;29;20510;-69
2021/09/16 00:25:38;;;;;;;7.90;5.20;;;18.70;77.20;;;;;;4936599;29;20118;-69
2021/09/16 00:28:04;;;;;;;6.40;4.75;;;18.70;77.10;;;;;;4936157;29;20055;-69
2021/09/16 00:30:30;;;;;;;7.78;5.70;;;18.70;77.30;;;;;;4953177;29;20058;-69
2021/09/16 00:32:55;;;;;;;7.40;5.22;;;18.70;77.20;;;;;;4953342;29;20047;-69
2021/09/16 00:35:21;;;;;;;7.60;5.07;;;18.60;77.30;;;;;;4953260;29;20102;-69
2021/09/16 00:37:47;;;;;;;7.60;5.70;;;18.70;77.50;;;;;;4953786;29;20051;-69
2021/09/16 00:40:13;;;;;;;7.38;5.80;;;18.70;77.40;;;;;;4955985;28;20043;-69
2021/09/16 00:42:39;;;;;;;8.00;5.28;;;18.70;77.30;;;;;;4956961;29;20512;-69
2021/09/16 00:45:05;;;;;;;7.82;5.40;;;18.70;77.20;;;;;;4955108;29;20058;-69
2021/09/16 00:47:30;;;;;;;8.32;5.97;;;18.60;77.60;;;;;;4957017;29;20163;-69
2021/09/16 00:49:56;;;;;;;6.97;5.85;;;18.60;77.40;;;;;;4957676;29;20110;-69
2021/09/16 00:52:22;;;;;;;8.27;5.80;;;18.60;77.60;;;;;;4956325;29;20457;-69
2021/09/16 00:54:49;;;;;;;7.35;5.45;;;18.60;77.60;;;;;;4957049;29;20027;-69
2021/09/16 00:57:16;;;;;;;8.45;5.45;;;18.60;77.60;;;;;;4956758;29;20027;-69
2021/09/16 00:59:46;;;;;;;7.97;6.00;;;18.60;77.60;;;;;;4956910;29;20453;-69
2021/09/16 01:02:12;;;;;;;6.70;5.47;;;18.60;77.60;;;;;;4957185;29;20027;-69
2021/09/16 01:04:38;;;;;;;7.40;5.95;;;18.50;77.70;;;;;;4957113;29;20034;-69
2021/09/16 01:07:04;;;;;;;8.00;5.80;;;18.50;77.80;;;;;;4956396;29;20481;-69
2021/09/16 01:09:32;;;;;;;8.23;6.38;;;18.50;78.10;;;;;;4956703;29;20035;-69
2021/09/16 01:11:58;;;;;;;8.45;6.05;;;18.50;77.80;;;;;;4956634;29;20125;-69
2021/09/16 01:14:24;;;;;;;8.63;6.57;;;18.50;78.10;;;;;;4956702;29;20280;-69
2021/09/16 01:16:51;;;;;;;8.18;5.97;;;18.50;78.00;;;;;;4957116;29;20030;-69
2021/09/16 01:19:17;;;;;;;9.02;6.10;;;18.50;78.10;;;;;;4956387;29;20034;-69
2021/09/16 01:21:43;;;;;;;7.82;6.13;;;18.50;78.10;;;;;;4938627;29;20031;-69
2021/09/16 01:24:09;;;;;;;8.07;6.10;;;18.50;78.10;;;;;;4956592;29;20028;-69
2021/09/16 01:26:35;;;;;;;9.32;6.53;;;18.50;78.00;;;;;;4956694;29;20035;-69
2021/09/16 01:29:00;;;;;;;8.90;6.32;;;18.50;77.90;;;;;;4952960;29;20419;-69
2021/09/16 01:31:37;;;;;;;10.43;7.05;;;18.40;77.90;;;;;;4956169;29;20098;-69
2021/09/16 01:34:08;;;;;;;9.63;7.05;;;18.40;78.10;;;;;;4955912;29;20130;-69
2021/09/16 01:36:34;;;;;;;9.73;6.93;;;18.40;78.30;;;;;;4951751;29;20035;-69
2021/09/16 01:39:04;;;;;;;10.32;7.20;;;18.50;78.40;;;;;;4944577;29;20448;-69
2021/09/16 01:41:30;;;;;;;9.27;7.05;;;18.50;78.00;;;;;;4956161;29;20404;-69
2021/09/16 01:43:56;;;;;;;10.45;7.10;;;18.50;78.10;;;;;;4956605;29;20098;-69
2021/09/16 01:46:22;;;;;;;9.05;6.35;;;18.50;78.10;;;;;;4953699;29;20586;-69
2021/09/16 01:48:48;;;;;;;10.88;7.28;;;18.50;79.00;;;;;;4956023;29;20416;-69
2021/09/16 01:51:14;;;;;;;11.68;7.55;;;18.50;78.00;;;;;;4955114;28;20039;-69
2021/09/16 01:53:40;;;;;;;10.25;7.45;;;18.40;78.10;;;;;;4955937;29;20102;-69
2021/09/16 01:56:05;;;;;;;9.93;7.10;;;18.40;78.10;;;;;;4956268;29;20059;-69
2021/09/16 01:58:31;;;;;;;9.75;7.35;;;18.50;78.40;;;;;;4954406;29;20110;-69
2021/09/16 02:00:58;;;;;;;10.00;6.82;;;18.40;79.10;;;;;;4955828;29;20034;-69
2021/09/16 02:03:23;;;;;;;10.10;7.38;;;18.40;78.30;;;;;;4947703;29;20489;-69
2021/09/16 02:05:49;;;;;;;10.82;7.47;;;18.40;78.00;;;;;;4955337;29;20027;-70
2021/09/16 02:08:15;;;;;;;10.43;7.28;;;18.40;78.00;;;;;;4955891;29;20106;-69
2021/09/16 02:10:40;;;;;;;10.77;7.90;;;18.30;78.20;;;;;;4955910;29;20444;-69
2021/09/16 02:13:06;;;;;;;10.90;7.25;;;18.30;78.10;;;;;;4955706;29;20556;-69
2021/09/16 02:15:32;;;;;;;11.13;7.72;;;18.30;78.10;;;;;;4955447;29;20023;-69
2021/09/16 02:17:57;;;;;;;10.35;7.15;;;18.20;78.20;;;;;;4955630;29;20515;-69
2021/09/16 02:20:23;;;;;;;9.70;7.70;;;18.20;78.20;;;;;;4954968;29;20042;-69
2021/09/16 02:22:48;;;;;;;11.40;8.15;;;18.10;78.10;;;;;;4955980;29;20121;-69
2021/09/16 02:25:14;;;;;;;10.35;7.85;;;18.10;78.30;;;;;;4955303;29;20027;-69
2021/09/16 02:27:40;;;;;;;14.00;7.70;;;18.10;78.60;;;;;;4955219;29;20038;-69
2021/09/16 02:30:06;;;;;;;11.35;7.75;;;18.00;78.60;;;;;;4937841;29;21002;-69
2021/09/16 02:32:32;;;;;;;10.30;7.22;;;18.00;78.60;;;;;;4955238;29;20053;-69
2021/09/16 02:34:58;;;;;;;9.88;7.65;;;18.00;78.70;;;;;;4955281;29;20556;-69
2021/09/16 02:37:23;;;;;;;11.48;7.57;;;18.00;78.90;;;;;;4955002;29;20035;-69
2021/09/16 02:39:49;;;;;;;11.43;7.65;;;18.00;79.10;;;;;;4954970;29;20408;-69
2021/09/16 02:42:15;;;;;;;12.73;8.02;;;18.00;79.00;;;;;;4954976;29;20035;-69
2021/09/16 02:44:41;;;;;;;11.57;8.23;;;18.10;79.10;;;;;;4954889;29;20039;-69
2021/09/16 02:47:06;;;;;;;11.52;7.82;;;18.00;79.20;;;;;;4953024;29;20031;-69
2021/09/16 02:49:32;;;;;;;12.40;8.00;;;18.10;79.20;;;;;;4954723;29;20027;-69
2021/09/16 02:51:58;;;;;;;11.55;7.70;;;18.10;79.10;;;;;;4954732;29;20515;-69
2021/09/16 02:54:24;;;;;;;10.82;7.82;;;18.10;79.20;;;;;;4954677;29;20027;-69
2021/09/16 02:56:49;;;;;;;11.05;7.72;;;18.10;79.20;;;;;;4954824;29;20052;-69
2021/09/16 02:59:16;;;;;;;13.25;8.70;;;18.10;79.10;;;;;;4954794;29;20078;-69
2021/09/16 03:01:41;;;;;;;12.25;8.52;;;18.20;79.20;;;;;;4954557;28;20150;-69
2021/09/16 03:04:07;;;;;;;11.40;7.82;;;18.20;79.30;;;;;;4954487;29;20110;-69
2021/09/16 03:06:32;;;;;;;12.57;8.25;;;18.20;79.30;;;;;;4954677;29;20620;-69
2021/09/16 03:08:58;;;;;;;12.45;7.80;;;18.30;79.20;;;;;;4954797;29;20027;-69
2021/09/16 03:11:24;;;;;;;11.70;7.88;;;18.30;79.00;;;;;;4954646;29;20046;-69
2021/09/16 03:13:50;;;;;;;12.73;8.15;;;18.30;78.90;;;;;;4937840;29;20050;-69
2021/09/16 03:16:15;;;;;;;12.15;9.00;;;18.30;79.20;;;;;;4954530;29;20621;-69
2021/09/16 03:18:41;;;;;;;13.50;8.77;;;18.30;79.10;;;;;;4954174;29;20023;-69
2021/09/16 03:21:06;;;;;;;11.73;7.95;;;18.30;79.00;;;;;;4954575;29;20088;-69
2021/09/16 03:23:32;;;;;;;12.80;8.63;;;18.30;79.40;;;;;;4954543;29;20038;-69
2021/09/16 03:25:58;;;;;;;13.13;8.80;;;18.20;79.00;;;;;;4954915;29;20436;-69
2021/09/16 03:28:23;;;;;;;11.10;8.05;;;18.30;79.20;;;;;;4954310;29;20114;-69
2021/09/16 03:30:49;;;;;;;11.75;7.57;;;18.20;79.30;;;;;;4937005;29;20026;-69
2021/09/16 03:33:15;;;;;;;11.15;8.02;;;18.30;79.20;;;;;;4953735;29;20061;-69
2021/09/16 03:35:41;;;;;;;11.32;7.85;;;18.30;79.20;;;;;;4954236;29;20392;-69
2021/09/16 03:38:06;;;;;;;11.05;8.30;;;18.20;79.10;;;;;;4954478;29;20042;-69
2021/09/16 03:40:32;;;;;;;11.15;7.55;;;18.20;78.90;;;;;;4954641;29;20020;-69
2021/09/16 03:42:57;;;;;;;12.57;8.00;;;18.20;79.30;;;;;;4954197;29;20511;-69
2021/09/16 03:45:23;;;;;;;11.05;7.63;;;18.20;79.10;;;;;;4954043;29;20528;-69
2021/09/16 03:47:49;;;;;;;10.70;8.20;;;18.20;79.40;;;;;;4953806;29;20031;-69
2021/09/16 03:50:14;;;;;;;10.90;7.90;;;18.10;79.10;;;;;;4936994;29;20058;-69
2021/09/16 03:52:41;;;;;;;13.30;7.88;;;18.10;79.20;;;;;;4954324;29;20039;-69
2021/09/16 03:55:07;;;;;;;11.18;8.18;;;18.10;80.30;;;;;;4953896;29;20023;-69
2021/09/16 03:57:33;;;;;;;10.57;7.78;;;18.10;79.30;;;;;;4953824;29;20130;-69
2021/09/16 03:59:58;;;;;;;11.20;7.88;;;18.10;79.40;;;;;;4953841;29;20532;-69
2021/09/16 04:02:24;;;;;;;11.85;8.77;;;18.10;79.70;;;;;;4935490;29;20488;-69
2021/09/16 04:04:50;;;;;;;12.07;8.57;;;18.10;79.60;;;;;;4953802;29;20098;-69
2021/09/16 04:07:15;;;;;;;11.23;7.82;;;18.20;79.40;;;;;;4953124;29;20570;-69
2021/09/16 04:09:41;;;;;;;13.07;8.43;;;18.10;79.20;;;;;;4936051;29;20023;-69
2021/09/16 04:12:07;;;;;;;14.93;8.52;;;18.10;79.40;;;;;;4953300;29;20071;-69
2021/09/16 04:14:32;;;;;;;11.65;8.32;;;18.10;79.30;;;;;;4953310;29;20098;-69
2021/09/16 04:16:58;;;;;;;11.32;8.35;;;18.10;79.40;;;;;;4953358;29;20034;-69
2021/09/16 04:19:24;;;;;;;13.02;8.98;;;18.10;79.40;;;;;;4951521;29;20031;-69
2021/09/16 04:21:49;;;;;;;11.65;8.35;;;18.10;79.40;;;;;;4952935;29;20035;-69
2021/09/16 04:24:16;;;;;;;12.00;8.50;;;18.10;79.40;;;;;;4953305;29;20081;-69
2021/09/16 04:26:45;;;;;;;11.60;8.82;;;18.10;79.40;;;;;;4953229;29;20027;-69
2021/09/16 04:29:12;;;;;;;11.45;8.85;;;18.10;79.20;;;;;;4952865;29;20023;-68
2021/09/16 04:31:39;;;;;;;14.98;9.00;;;18.10;79.40;;;;;;4953526;29;20513;-69
2021/09/16 04:34:04;;;;;;;11.77;8.90;;;18.10;79.30;;;;;;4952731;29;20039;-69
2021/09/16 04:36:30;;;;;;;11.82;8.40;;;18.10;79.30;;;;;;4952952;29;20027;-69
2021/09/16 04:38:56;;;;;;;12.93;8.95;;;18.10;79.30;;;;;;4935852;29;20548;-69
2021/09/16 04:41:23;;;;;;;12.95;8.52;;;18.10;79.30;;;;;;4953214;29;20114;-69
2021/09/16 04:43:49;;;;;;;13.00;9.25;;;18.10;79.40;;;;;;4953098;29;20027;-69
2021/09/16 04:46:15;;;;;;;11.15;8.52;;;18.10;79.20;;;;;;4952822;29;20462;-69
2021/09/16 04:48:40;;;;;;;11.85;8.40;;;18.10;79.40;;;;;;4952818;29;20404;-69
2021/09/16 04:51:06;;;;;;;12.07;9.13;;;18.10;79.50;;;;;;4953171;29;20114;-69
2021/09/16 04:53:32;;;;;;;12.43;9.25;;;18.10;79.30;;;;;;4952776;29;20027;-67
2021/09/16 04:55:57;;;;;;;12.52;8.98;;;18.10;79.20;;;;;;4936059;29;20054;-69
2021/09/16 04:58:23;;;;;;;11.23;8.20;;;18.10;79.20;;;;;;4952417;29;20457;-68
2021/09/16 05:00:49;;;;;;;13.40;9.23;;;18.10;79.30;;;;;;4935339;29;20023;-69
2021/09/16 05:03:15;;;;;;;13.48;8.55;;;18.10;79.20;;;;;;4952666;29;20487;-69
2021/09/16 05:05:40;;;;;;;12.32;8.65;;;18.10;79.20;;;;;;4935564;29;20027;-69
2021/09/16 05:08:06;;;;;;;13.73;9.15;;;18.10;79.20;;;;;;4952838;29;20481;-69
2021/09/16 05:10:32;;;;;;;13.30;8.85;;;18.10;78.90;;;;;;4945267;29;20023;-69
2021/09/16 05:12:58;;;;;;;11.52;8.27;;;18.10;79.40;;;;;;4948561;29;20047;-69
2021/09/16 05:15:24;;;;;;;11.30;8.57;;;18.10;79.40;;;;;;4948429;29;20433;-69
2021/09/16 05:17:49;;;;;;;12.95;9.43;;;18.10;79.30;;;;;;4938541;29;20082;-69
2021/09/16 05:20:15;;;;;;;12.23;8.85;;;18.10;79.40;;;;;;4951540;29;20051;-69
2021/09/16 05:22:41;;;;;;;12.73;9.07;;;18.10;79.40;;;;;;4951264;29;20035;-69
2021/09/16 05:25:08;;;;;;;13.55;9.02;;;18.10;79.40;;;;;;4952507;28;20507;-69
2021/09/16 05:27:33;;;;;;;13.18;9.00;;;18.10;79.40;;;;;;4955681;29;20054;-70
2021/09/16 05:29:59;;;;;;;12.85;8.95;;;18.10;79.50;;;;;;4955877;29;20063;-69
2021/09/16 05:32:27;;;;;;;12.45;9.15;;;18.00;79.40;;;;;;4955723;29;20055;-69
2021/09/16 05:34:55;;;;;;;12.95;8.75;;;18.10;79.70;;;;;;4953136;29;20042;-70
2021/09/16 05:37:21;;;;;;;14.18;9.50;;;18.10;79.50;;;;;;4950485;29;20051;-69
2021/09/16 05:39:47;;;;;;;13.43;9.35;;;18.10;79.50;;;;;;4954242;29;20511;-69
2021/09/16 05:42:13;;;;;;;13.70;9.05;;;18.10;80.60;;;;;;4954909;29;20031;-69
2021/09/16 05:44:38;;;;;;;13.45;9.65;;;18.10;79.50;;;;;;4950312;29;20102;-70
2021/09/16 05:47:04;;;;;;;12.68;9.07;;;18.10;79.50;;;;;;4955840;29;20488;-69
2021/09/16 05:49:30;;;;;;;13.65;9.98;;;18.10;79.50;;;;;;4956260;29;20544;-69
2021/09/16 05:51:56;;;;;;;14.57;9.63;;;18.10;79.40;;;;;;4955423;29;20126;-69
2021/09/16 05:54:22;;;;;;;12.10;8.88;;;18.20;79.70;;;;;;4955535;29;20484;-69
2021/09/16 05:56:48;;;;;;;14.63;9.27;;;18.20;79.50;;;;;;4955360;29;20034;-69
2021/09/16 05:59:16;;;;;;;12.77;9.27;;;18.20;79.30;;;;;;4955810;29;20015;-69
2021/09/16 06:01:42;;;;;;;12.77;9.18;;;18.10;79.40;;;;;;4947469;29;20500;-70
2021/09/16 06:04:08;;;;;;;15.35;10.02;;;18.10;79.40;;;;;;4953000;29;20038;-70
2021/09/16 06:06:34;;;;;;;12.82;9.50;;;18.10;79.60;;;;;;4955527;29;20039;-70
2021/09/16 06:09:00;;;;;;;13.90;9.73;;;18.10;79.60;;;;;;4955422;29;20035;-70
2021/09/16 06:11:25;;;;;;;13.70;9.95;;;18.20;79.60;;;;;;4955100;29;20033;-70
2021/09/16 06:13:54;;;;;;;14.23;9.95;;;18.20;79.40;;;;;;4955745;29;20377;-70
2021/09/16 06:16:24;;;;;;;13.55;9.75;;;18.20;79.40;;;;;;4955063;29;20122;-69
2021/09/16 06:18:50;;;;;;;14.93;9.77;;;18.20;79.60;;;;;;4955193;29;20037;-70
2021/09/16 06:21:16;;;;;;;13.95;9.52;;;18.20;79.60;;;;;;4954264;29;20023;-70
2021/09/16 06:23:42;;;;;;;13.80;9.63;;;18.20;79.70;;;;;;4954823;29;20500;-70
2021/09/16 06:26:08;;;;;;;13.52;9.50;;;18.20;79.40;;;;;;4955117;29;20023;-70
2021/09/16 06:28:33;;;;;;;13.75;9.90;;;18.20;79.60;;;;;;4955134;29;20433;-70
2021/09/16 06:30:59;;;;;;;15.10;10.05;;;18.20;79.70;;;;;;4948400;29;20467;-70
2021/09/16 06:33:25;;;;;;;17.65;10.35;;;18.30;79.90;;;;;;4946138;29;20051;-70
2021/09/16 06:35:50;;;;;;;14.48;10.02;;;18.30;79.50;;;;;;4946456;29;20157;-70
2021/09/16 06:38:16;;;;;;;15.63;10.50;;;18.30;79.70;;;;;;4944372;29;20039;-70
2021/09/16 06:40:42;;;;;;;13.98;10.38;;;18.30;79.50;;;;;;4942868;29;20028;-70
2021/09/16 06:43:08;;;;;;;16.13;11.07;;;18.30;79.50;;;;;;4927390;29;20038;-68
2021/09/16 06:45:33;;;;;;;14.82;10.43;;;18.30;79.50;;;;;;4946187;29;20070;-69
2021/09/16 06:47:59;;;;;;;13.48;10.20;;;18.30;79.40;;;;;;4926338;29;20031;-72
2021/09/16 06:50:25;;;;;;;16.27;12.02;;;18.30;79.40;;;;;;4934284;29;20158;-71
2021/09/16 06:52:50;;;;;;;15.88;10.95;;;18.30;79.50;;;;;;4946026;29;20090;-70
2021/09/16 06:55:17;;;;;;;22.15;11.77;;;18.30;79.50;;;;;;4924519;29;20028;-70
2021/09/16 06:57:42;;;;;;;16.60;11.10;;;18.30;79.50;;;;;;4943712;29;20027;-73
2021/09/16 07:00:08;;;;;;;17.88;10.85;;;18.30;79.50;;;;;;4943604;29;20054;-73
2021/09/16 07:02:35;;;;;;;17.55;10.82;;;18.40;79.30;;;;;;4944752;29;20404;-72
2021/09/16 07:05:02;;;;;;;15.57;10.73;;;18.40;79.20;;;;;;4943273;29;20121;-73
2021/09/16 07:07:27;;;;;;;15.90;11.18;;;18.40;79.40;;;;;;4945253;29;20471;-71
2021/09/16 07:09:53;;;;;;;16.83;10.63;;;18.40;79.30;;;;;;4946731;29;20054;-72
2021/09/16 07:12:19;;;;;;;17.30;11.43;;;18.40;79.50;;;;;;4945017;29;20516;-72
2021/09/16 07:14:45;;;;;;;26.30;11.80;;;18.50;79.30;;;;;;4927383;29;20053;-72
2021/09/16 07:17:11;;;;;;;22.50;11.55;;;18.50;79.20;;;;;;4945661;29;20106;-73
2021/09/16 07:19:36;;;;;;;20.33;11.20;;;18.60;79.40;;;;;;4947109;29;20032;-74
2021/09/16 07:22:02;;;;;;;16.85;11.77;;;18.70;79.30;;;;;;4946397;29;20055;-75
2021/09/16 07:24:28;;;;;;;16.80;11.77;;;18.80;79.10;;;;;;4945612;29;20032;-77
2021/09/16 07:26:54;;;;;;;17.85;12.25;;;18.80;79.00;;;;;;4947332;29;20090;-74
2021/09/16 07:29:24;;;;;;;15.13;10.98;;;19.00;78.80;;;;;;4944014;29;20520;-75
2021/09/16 07:31:54;;;;;;;16.33;11.40;;;19.00;78.20;;;;;;4949895;29;20074;-74
2021/09/16 07:34:20;;;;;;;29.77;12.45;;;18.90;78.20;;;;;;4952792;29;20491;-76
2021/09/16 07:36:47;;;;;;;35.00;12.82;;;19.00;78.20;;;;;;4929590;29;20038;-76
2021/09/16 07:39:18;;;;;;;20.20;11.98;;;19.20;78.40;;;;;;4925237;29;20040;-81
2021/09/16 07:41:44;;;;;;;20.55;11.55;;;19.40;78.70;;;;;;4895589;29;20142;-79
2021/09/16 07:44:10;;;;;;;15.75;11.48;;;19.70;78.20;;;;;;4918874;29;20027;-74
2021/09/16 07:46:36;;;;;;;24.98;11.77;;;19.90;77.60;;;;;;4904062;29;20033;-74
2021/09/16 07:49:02;;;;;;;20.15;12.20;;;20.20;77.30;;;;;;4902179;29;20047;-74
2021/09/16 07:51:28;;;;;;;16.48;11.35;;;20.40;76.30;;;;;;4898553;29;20046;-76
2021/09/16 07:53:54;;;;;;;36.70;12.50;;;20.60;76.00;;;;;;4873793;29;20539;-71
2021/09/16 07:56:19;;;;;;;18.02;11.48;;;20.70;75.20;;;;;;4912545;29;20102;-69
2021/09/16 07:58:46;;;;;;;16.35;11.05;;;20.70;74.60;;;;;;4902235;29;20034;-69
2021/09/16 08:01:12;;;;;;;15.65;10.18;;;20.80;74.70;;;;;;4943584;29;20032;-69
2021/09/16 08:03:38;;;;;;;14.43;11.10;;;20.90;74.70;;;;;;4953289;29;20027;-71
2021/09/16 08:06:04;;;;;;;14.95;10.20;;;21.00;74.10;;;;;;4952197;28;20050;-69
2021/09/16 08:08:29;;;;;;;13.90;10.23;;;21.10;74.30;;;;;;4937482;29;20031;-68
2021/09/16 08:10:56;;;;;;;14.20;10.32;;;21.30;73.60;;;;;;4953488;29;20027;-69
2021/09/16 08:13:22;;;;;;;15.13;9.95;;;21.40;73.60;;;;;;4948322;29;20047;-73
2021/09/16 08:15:48;;;;;;;14.30;10.57;;;21.60;73.00;;;;;;4930815;29;20132;-73
2021/09/16 08:18:13;;;;;;;11.40;9.35;;;21.80;73.00;;;;;;4951149;29;20130;-72
2021/09/16 08:20:42;;;;;;;12.30;9.27;;;22.00;72.40;;;;;;4937982;29;20074;-73
2021/09/16 08:23:08;;;;;;;13.30;10.15;;;22.00;71.70;;;;;;4951812;29;20030;-70
2021/09/16 08:25:34;;;;;;;14.73;10.25;;;21.90;70.60;;;;;;4952787;29;20027;-71
2021/09/16 08:28:00;;;;;;;11.63;9.02;;;21.90;71.70;;;;;;4952598;29;20481;-69
2021/09/16 08:30:26;;;;;;;12.77;9.32;;;22.00;71.20;;;;;;4952426;29;20038;-70
2021/09/16 08:32:52;;;;;;;12.68;8.73;;;22.10;71.10;;;;;;4951728;29;20047;-70
2021/09/16 08:35:19;;;;;;;11.90;9.40;;;22.30;71.10;;;;;;4952358;29;20397;-71
2021/09/16 08:37:45;;;;;;;15.48;9.10;;;22.30;69.60;;;;;;4948462;29;20649;-69
2021/09/16 08:40:11;;;;;;;12.55;8.82;;;22.40;69.70;;;;;;4943497;29;20572;-70
2021/09/16 08:42:40;;;;;;;11.48;8.75;;;22.40;69.20;;;;;;4948583;29;20110;-72
2021/09/16 08:45:08;;;;;;;10.60;8.23;;;22.50;69.80;;;;;;4941539;29;20057;-70
2021/09/16 08:47:37;;;;;;;11.07;8.18;;;22.50;68.90;;;;;;4937210;29;20041;-71
2021/09/16 08:50:03;;;;;;;17.58;7.30;;;22.40;68.50;;;;;;4948518;29;20024;-74
2021/09/16 08:52:32;;;;;;;14.38;7.25;;;22.30;69.20;;;;;;4951466;29;20036;-71
2021/09/16 08:54:59;;;;;;;12.80;7.28;;;22.30;68.80;;;;;;4951732;29;20032;-73
2021/09/16 08:57:26;;;;;;;11.32;7.38;;;22.30;69.10;;;;;;4934960;29;20069;-73
2021/09/16 08:59:51;;;;;;;14.45;6.85;;;22.40;67.30;;;;;;4952463;28;20023;-73
2021/09/16 09:02:17;;;;;;;17.30;7.68;;;22.30;68.60;;;;;;4956259;29;20030;-72
2021/09/16 09:04:43;;;;;;;8.77;6.50;;;22.30;67.70;;;;;;4954969;29;20020;-73
2021/09/16 09:07:09;;;;;;;10.10;6.38;;;22.10;67.90;;;;;;4955730;29;20122;-73
2021/09/16 09:09:35;;;;;;;7.63;6.22;;;21.90;68.20;;;;;;4938480;29;20146;-73
2021/09/16 09:12:08;;;;;;;7.32;6.10;;;21.60;68.20;;;;;;4949971;29;20520;-74
2021/09/16 09:14:40;;;;;;;8.73;7.28;;;21.30;68.40;;;;;;4950849;29;20035;-74
2021/09/16 09:17:30;;;;;;;11.15;7.72;;;21.00;68.90;;;;;;4939430;29;20083;-74
2021/09/16 09:20:05;;;;;;;10.07;7.68;;;20.90;69.70;;;;;;4947476;29;20079;-71
2021/09/16 09:22:34;;;;;;;27.13;9.52;;;20.80;70.00;;;;;;4955277;29;20034;-71
2021/09/16 09:25:09;;;;;;;26.42;8.93;;;20.70;70.50;;;;;;4938128;29;20102;-71
2021/09/16 09:27:38;;;;;;;17.90;8.13;;;20.70;70.90;;;;;;4954583;29;20104;-71
2021/09/16 09:30:14;;;;;;;11.55;8.35;;;20.80;71.50;;;;;;4955250;29;20118;-71
2021/09/16 09:32:49;;;;;;;10.70;7.85;;;21.10;72.00;;;;;;4940448;29;20054;-71
2021/09/16 09:35:29;;;;;;;9.32;7.28;;;21.60;72.40;;;;;;4954530;29;20556;-70
2021/09/16 09:37:55;;;;;;;11.93;8.10;;;22.10;71.40;;;;;;4954007;29;20162;-70
2021/09/16 09:40:36;;;;;;;9.65;7.43;;;22.40;69.70;;;;;;4937802;29;20042;-72
2021/09/16 09:43:27;;;;;;;10.52;7.53;;;22.80;69.90;;;;;;4937892;29;20503;-72
2021/09/16 09:46:15;;;;;;;8.55;6.85;;;23.20;69.30;;;;;;4937375;29;20058;-72
2021/09/16 09:49:01;;;;;;;10.00;7.38;;;23.60;66.40;;;;;;4954267;29;20034;-72
2021/09/16 09:51:50;;;;;;;7.90;6.18;;;23.70;66.00;;;;;;4954519;29;20051;-72
2021/09/16 09:54:32;;;;;;;7.28;6.18;;;24.10;65.30;;;;;;4955284;29;20038;-70
2021/09/16 09:57:13;;;;;;;6.05;5.45;;;24.00;62.60;;;;;;4954005;29;20033;-71
2021/09/16 09:59:51;;;;;;;8.10;6.30;;;23.80;60.90;;;;;;4939365;29;20061;-71
2021/09/16 10:02:17;;;;;;;6.80;5.40;;;23.30;60.10;;;;;;4938847;29;20063;-72
2021/09/16 10:04:43;;;;;;;8.27;5.30;;;22.90;61.80;;;;;;4954795;29;20054;-67
2021/09/16 10:07:09;;;;;;;16.05;4.97;;;22.80;63.50;;;;;;4937739;29;20039;-68
2021/09/16 10:09:36;;;;;;;6.07;5.07;;;22.80;64.20;;;;;;4953723;29;20552;-67
2021/09/16 10:12:02;;;;;;;6.28;5.20;;;22.70;64.00;;;;;;4954902;28;20103;-66
2021/09/16 10:14:28;;;;;;;6.05;4.78;;;22.60;64.00;;;;;;4954753;29;20027;-65
2021/09/16 10:16:53;;;;;;;5.82;5.10;;;22.40;64.00;;;;;;4955424;29;20027;-64
2021/09/16 10:19:19;;;;;;;6.25;5.00;;;22.10;64.00;;;;;;4954515;29;20090;-69
2021/09/16 10:21:45;;;;;;;5.82;4.97;;;22.00;64.30;;;;;;4954217;29;20455;-69
2021/09/16 10:24:17;;;;;;;6.15;4.78;;;21.80;64.90;;;;;;4954256;29;20023;-69
2021/09/16 10:26:47;;;;;;;6.10;4.95;;;21.70;65.50;;;;;;4954650;29;20508;-69
2021/09/16 10:29:28;;;;;;;5.82;4.60;;;21.60;65.40;;;;;;4936944;29;20027;-69
2021/09/16 10:32:06;;;;;;;6.05;4.82;;;21.60;66.10;;;;;;4954101;29;20039;-68
2021/09/16 10:34:44;;;;;;;6.88;5.25;;;21.60;66.10;;;;;;4954499;29;20067;-73
2021/09/16 10:37:12;;;;;;;8.02;5.90;;;21.70;66.70;;;;;;4953982;29;20043;-72
2021/09/16 10:39:39;;;;;;;6.15;4.93;;;22.60;65.10;;;;;;4954397;29;20063;-74
2021/09/16 10:42:06;;;;;;;5.15;4.30;;;23.60;64.90;;;;;;4936909;29;20121;-73
2021/09/16 10:44:31;;;;;;;5.40;4.13;;;24.70;63.50;;;;;;4954485;29;20079;-72
2021/09/16 10:47:00;;;;;;;6.90;4.13;;;25.40;61.00;;;;;;4954658;29;20035;-72
2021/09/16 10:49:28;;;;;;;4.53;4.00;;;25.50;54.90;;;;;;4936576;29;20381;-72
2021/09/16 10:51:57;;;;;;;4.18;3.45;;;25.90;57.30;;;;;;4947697;29;20074;-72
2021/09/16 10:54:29;;;;;;;4.40;4.00;;;26.90;57.50;;;;;;4945685;29;20508;-73
2021/09/16 10:57:07;;;;;;;3.58;3.03;;;27.60;53.30;;;;;;4954745;29;20492;-73
2021/09/16 10:59:54;;;;;;;4.00;3.60;;;27.40;52.80;;;;;;4939398;29;20086;-73
2021/09/16 11:02:23;;;;;;;3.50;3.20;;;26.40;51.30;;;;;;4947717;29;20110;-73
2021/09/16 11:04:56;;;;;;;4.40;3.25;;;25.80;51.90;;;;;;4953325;29;20030;-72
2021/09/16 11:07:33;;;;;;;4.00;3.60;;;25.10;53.10;;;;;;4954159;29;20495;-72
2021/09/16 11:10:14;;;;;;;3.70;3.30;;;24.60;54.20;;;;;;4954302;29;20579;-74
2021/09/16 11:12:41;;;;;;;5.25;3.25;;;24.20;55.90;;;;;;4954484;29;20122;-73
2021/09/16 11:15:11;;;;;;;3.55;3.15;;;23.90;55.50;;;;;;4954187;29;20469;-74
2021/09/16 11:17:38;;;;;;;4.30;2.90;;;23.60;56.60;;;;;;4937003;29;20030;-72
2021/09/16 11:20:05;;;;;;;4.05;3.38;;;23.40;57.50;;;;;;4954750;29;20130;-72
2021/09/16 11:22:31;;;;;;;3.60;3.22;;;23.40;58.10;;;;;;4953856;28;20031;-72
2021/09/16 11:24:58;;;;;;;5.50;4.05;;;23.30;58.20;;;;;;4953920;29;20027;-72
2021/09/16 11:27:28;;;;;;;5.38;3.92;;;23.30;57.30;;;;;;4954063;29;20125;-72
2021/09/16 11:29:55;;;;;;;5.38;3.97;;;23.30;58.20;;;;;;4953261;29;20023;-72
2021/09/16 11:32:20;;;;;;;5.20;4.15;;;23.60;58.80;;;;;;4953781;29;20651;-74
2021/09/16 11:34:57;;;;;;;7.65;4.00;;;24.10;58.40;;;;;;4953940;29;20110;-71
2021/09/16 11:37:31;;;;;;;4.72;3.63;;;24.10;57.60;;;;;;4952563;29;20029;-68
2021/09/16 11:40:07;;;;;;;4.07;3.00;;;24.10;56.60;;;;;;4945419;29;20034;-69
2021/09/16 11:42:35;;;;;;;3.85;3.45;;;24.30;57.90;;;;;;4943129;29;20023;-70
2021/09/16 11:45:18;;;;;;;4.85;3.22;;;24.40;57.40;;;;;;4942122;29;20134;-72
2021/09/16 11:47:54;;;;;;;3.92;3.13;;;24.30;56.90;;;;;;4931345;29;20027;-71
2021/09/16 11:50:22;;;;;;;3.90;3.22;;;24.20;57.50;;;;;;4946674;29;20059;-71
2021/09/16 11:52:53;;;;;;;4.53;3.15;;;24.00;56.70;;;;;;4935105;29;20043;-72
2021/09/16 11:55:19;;;;;;;4.95;3.47;;;23.80;56.70;;;;;;4937794;29;20115;-71
2021/09/16 11:58:02;;;;;;;6.28;3.63;;;23.70;57.20;;;;;;4938531;29;20114;-72
2021/09/16 12:00:31;;;;;;;5.90;4.10;;;23.60;57.60;;;;;;4906049;29;20139;-72
2021/09/16 12:02:57;;;;;;;4.78;3.60;;;23.50;58.30;;;;;;4888100;29;20050;-70
2021/09/16 12:05:43;;;;;;;3.97;3.28;;;23.50;58.00;;;;;;4881152;29;21750;-70
2021/09/16 12:08:18;;;;;;;3.35;2.92;;;23.40;58.30;;;;;;4900714;29;21272;-70
2021/09/16 12:10:54;;;;;;;217.30;17.98;;;23.30;57.90;;;;;;4892331;29;20028;-70
2021/09/16 12:13:26;;;;;;;118.68;12.10;;;23.30;58.60;;;;;;4887175;29;20154;-71
2021/09/16 12:16:14;;;;;;;23.75;5.07;;;23.40;58.80;;;;;;4933643;29;21311;-71
2021/09/16 12:18:49;;;;;;;7.30;3.58;;;23.60;58.70;;;;;;4940770;29;20034;-71
2021/09/16 12:21:19;;;;;;;4.22;3.22;;;24.10;58.50;;;;;;4956030;28;20050;-73
2021/09/16 12:23:50;;;;;;;5.15;3.10;;;25.70;61.20;;;;;;4951818;29;20027;-74
2021/09/16 12:26:24;;;;;;;3.03;2.72;;;29.10;58.90;;;;;;4952517;29;20031;-74
2021/09/16 12:28:54;;;;;;;2.30;1.95;;;32.50;49.30;;;;;;4951111;29;20385;-71
2021/09/16 12:31:33;;;;;;;2.60;1.93;;;35.10;44.50;;;;;;4951852;29;20048;-71
2021/09/16 12:34:01;;;;;;;3.78;2.40;;;36.60;39.00;;;;;;4948292;28;20054;-71
2021/09/16 12:36:28;;;;;;;1.75;1.63;;;38.00;33.40;;;;;;4954689;29;20027;-72
2021/09/16 12:39:14;;;;;;;2.10;1.83;;;36.90;29.10;;;;;;4956678;29;20027;-72
2021/09/16 12:41:50;;;;;;;1.60;1.50;;;33.80;29.90;;;;;;4942171;29;20127;-72